Flight Track Log - Related Links

Times and Time Zones

All times are in EDT time to prevent confusion due to time zone crossing. See the UAL4305 flight status page for this flight to view local times or setup timezone preferences in your user account.

Time Position Orientation Groundspeed Altitude Reporting Facility
EDT Latitude Longitude Course Direction KTS MPH feet Rate Location/Type
Mon 02:15:00 PM 29.9639 -95.3433 105° East 125 144 700  Level Houston Center
Mon 02:16:15 PM 29.9506 -95.2867 105° East 192 221 2,600 1,696 Climbing Houston Center
Mon 02:16:32 PM 29.9447 -95.2492 100° East 251 289 3,300 1,452 Climbing Houston Center
Mon 02:17:17 PM 29.9358 -95.1925 100° East 239 275 4,100 677 Climbing Houston Center
Mon 02:17:34 PM 29.9328 -95.1661 98° East 262 302 4,000  Descending Houston Center
Mon 02:18:19 PM 29.9256 -95.1097 98° East 257 296 4,100 785 Climbing Houston Center
Mon 02:19:21 PM 29.9322 -95.0231 85° East 275 316 5,400 1,792 Climbing Houston Center
Mon 02:19:36 PM 29.9331 -94.9903 88° East 286 329 6,400 2,419 Climbing Houston Center
Mon 02:20:23 PM 29.9403 -94.9303 82° East 288 331 7,900 2,092 Climbing Houston Center
Mon 02:21:25 PM 29.9494 -94.8347 84° East 297 342 10,200 1,392 Climbing Houston Center
Mon 02:22:28 PM 29.9597 -94.7294 84° East 327 376 10,800 1,152 Climbing Houston Center
Mon 02:23:30 PM 29.9719 -94.5878 84° East 367 422 12,600 1,500 Climbing Houston Center
Mon 02:24:32 PM 29.9811 -94.4783 84° East 374 430 13,900 1,306 Climbing Houston Center
Mon 02:25:34 PM 29.9919 -94.3553 84° East 384 442 15,300 1,500 Climbing Houston Center
Mon 02:26:36 PM 30.0092 -94.2053 82° East 394 453 17,000 1,548 Climbing Houston Center
Mon 02:27:38 PM 30.0244 -94.0783 82° East 402 463 18,500 1,548 Climbing Houston Center
Mon 02:28:40 PM 30.0397 -93.9517 82° East 400 460 20,200 1,632 Climbing Houston Center
Mon 02:29:43 PM 30.0553 -93.8264 82° East 398 458 21,900 1,632 Climbing Houston Center
Mon 02:30:45 PM 30.0711 -93.7019 82° East 397 457 23,600 1,645 Climbing Houston Center
Mon 02:31:47 PM 30.0881 -93.5531 82° East 395 455 25,300 1,452 Climbing Houston Center
Mon 02:32:49 PM 30.1028 -93.4267 82° East 403 464 26,600 1,500 Climbing Houston Center
Mon 02:33:51 PM 30.1169 -93.3014 83° East 401 461 28,400 1,548 Climbing Houston Center
Mon 02:34:53 PM 30.1317 -93.1778 82° East 394 453 29,800 1,306 Climbing Houston Center
Mon 02:35:55 PM 30.1650 -93.0614 72° East 395 455 31,100 1,355 Climbing Houston Center
Mon 02:36:57 PM 30.2331 -92.9356 58° Northeast 390 449 32,600 1,161 Climbing Houston Center
Mon 02:37:59 PM 30.2906 -92.8297 58° Northeast 389 448 33,500 968 Climbing Houston Center
Mon 02:39:01 PM 30.3486 -92.7231 58° Northeast 393 452 34,600 726 Climbing Houston Center
Mon 02:40:03 PM 30.4067 -92.6178 57° Northeast 391 450 35,000 194 Climbing Houston Center
Mon 02:41:05 PM 30.4669 -92.5036 58° Northeast 408 470 35,000  Level Houston Center
Mon 02:42:07 PM 30.5358 -92.3789 57° Northeast 431 496 35,000  Level Houston Center
Mon 02:43:09 PM 30.6178 -92.2261 58° Northeast 465 535 35,000  Level Houston Center
Mon 02:44:12 PM 30.6881 -92.0961 58° Northeast 478 550 35,000  Level Houston Center
Mon 02:45:14 PM 30.7600 -91.9628 58° Northeast 487 560 35,000  Level Houston Center
Mon 02:46:16 PM 30.8314 -91.8272 58° Northeast 494 568 35,000  Level Houston Center
Mon 02:47:18 PM 30.9047 -91.6925 58° Northeast 496 571 35,000  Level Houston Center
Mon 02:48:20 PM 30.9908 -91.5300 58° Northeast 496 571 35,000  Level Houston Center
Mon 02:49:22 PM 31.0578 -91.4006 59° Northeast 492 566 35,000  Level Houston Center
Mon 02:50:24 PM 31.1303 -91.2633 58° Northeast 495 570 35,000  Level Houston Center
Mon 02:51:26 PM 31.2014 -91.1272 59° Northeast 493 567 35,000  Level Houston Center
Mon 02:52:28 PM 31.2722 -90.9908 59° Northeast 490 564 35,000  Level Houston Center
Mon 02:53:30 PM 31.3589 -90.8253 58° Northeast 495 570 35,000  Level Houston Center
Mon 02:54:33 PM 31.4300 -90.6881 59° Northeast 493 567 35,000  Level Houston Center
Mon 02:55:35 PM 31.5003 -90.5497 59° Northeast 494 568 35,000  Level Houston Center
Mon 02:56:37 PM 31.5719 -90.4117 59° Northeast 494 568 35,000  Level Houston Center
Mon 02:57:39 PM 31.6428 -90.2731 59° Northeast 494 568 35,000  Level Houston Center
Mon 02:58:41 PM 31.7131 -90.1344 59° Northeast 495 570 35,000  Level Houston Center
Mon 02:58:56 PM 31.7406 -90.0764 61° Northeast 488 562 35,000  Level Memphis Center
Mon 02:59:56 PM 31.8047 -89.9492 59° Northeast 497 572 35,000  Level Memphis Center
Mon 03:00:56 PM 31.8753 -89.8094 59° Northeast 497 572 35,000  Level Memphis Center
Mon 03:01:56 PM 31.9478 -89.6694 59° Northeast 492 566 35,000  Level Memphis Center
Mon 03:02:56 PM 32.0200 -89.5317 58° Northeast 492 566 35,000  Level Memphis Center
Mon 03:03:56 PM 32.0900 -89.3911 60° Northeast 492 566 35,000  Level Memphis Center
Mon 03:04:56 PM 32.1575 -89.2506 60° Northeast 492 566 35,000  Level Memphis Center
Mon 03:05:56 PM 32.2294 -89.1097 59° Northeast 497 572 35,000  Level Memphis Center
Mon 03:06:56 PM 32.2989 -88.9686 60° Northeast 497 572 35,000  Level Memphis Center
Mon 03:07:56 PM 32.3681 -88.8275 60° Northeast 492 566 35,000  Level Memphis Center
Mon 03:08:56 PM 32.4519 -88.7006 52° Northeast 486 559 35,000  Level Memphis Center
Mon 03:09:56 PM 32.5400 -88.5731 51° Northeast 486 559 35,000  Level Memphis Center
Mon 03:10:56 PM 32.6281 -88.4481 50° Northeast 486 559 35,000  Level Memphis Center
Mon 03:11:56 PM 32.7239 -88.3103 50° Northeast 491 565 35,000  Level Memphis Center
Mon 03:13:54 PM 32.8786 -88.0728 52° Northeast 514 592 35,000  Level Atlanta Center
Mon 03:14:54 PM 32.9772 -87.9339 50° Northeast 506 582 35,000  Level Atlanta Center
Mon 03:15:54 PM 33.0517 -87.8206 52° Northeast 491 565 35,000  Level Atlanta Center
Mon 03:16:54 PM 33.1389 -87.6931 51° Northeast 491 565 35,000  Level Atlanta Center
Mon 03:17:54 PM 33.2242 -87.5650 51° Northeast 491 565 35,000  Level Atlanta Center
Mon 03:18:54 PM 33.3089 -87.4392 51° Northeast 491 565 35,000  Level Atlanta Center
Mon 03:19:54 PM 33.3939 -87.3131 51° Northeast 491 565 35,000  Level Atlanta Center
Mon 03:20:54 PM 33.4786 -87.1869 51° Northeast 485 558 35,000  Level Atlanta Center
Mon 03:21:54 PM 33.5653 -87.0578 51° Northeast 485 558 35,000  Level Atlanta Center
Mon 03:22:54 PM 33.6478 -86.9286 52° Northeast 485 558 35,000  Level Atlanta Center
Mon 03:23:55 PM 33.7381 -86.8067 48° Northeast 485 558 35,000  Level Atlanta Center
Mon 03:24:54 PM 33.8306 -86.6844 48° Northeast 485 558 35,000  Level Atlanta Center
Mon 03:25:54 PM 33.9228 -86.5622 48° Northeast 485 558 35,000  Level Atlanta Center
Mon 03:26:54 PM 34.0131 -86.4397 48° Northeast 485 558 35,000  Level Atlanta Center
Mon 03:27:54 PM 34.1050 -86.3192 47° Northeast 479 551 35,000  Level Atlanta Center
Mon 03:28:54 PM 34.1969 -86.1986 47° Northeast 479 551 35,000 -250 Level Atlanta Center
Mon 03:29:54 PM 34.2953 -86.0603 49° Northeast 484 557 34,500 -500 Descending Atlanta Center
Mon 03:30:54 PM 34.3847 -85.9442 47° Northeast 476 548 34,000 -250 Descending Atlanta Center
Mon 03:31:54 PM 34.4700 -85.8278 48° Northeast 470 541 34,000 -500 Level Atlanta Center
Mon 03:32:54 PM 34.5550 -85.7136 48° Northeast 457 526 33,000 -1,250 Descending Atlanta Center
Mon 03:33:54 PM 34.6444 -85.5892 49° Northeast 468 539 31,500 -1,500 Descending Atlanta Center
Mon 03:34:54 PM 34.7253 -85.4542 54° Northeast 482 555 30,000 -1,550 Descending Atlanta Center
Mon 03:35:54 PM 34.7894 -85.3058 62° Northeast 489 563 28,400 -1,450 Descending Atlanta Center
Mon 03:36:54 PM 34.8556 -85.1575 61° Northeast 495 570 27,100 -700 Descending Atlanta Center
Mon 03:37:54 PM 34.9175 -85.0139 62° Northeast 485 558 27,000 -500 Descending Atlanta Center
Mon 03:38:54 PM 34.9789 -84.8703 62° Northeast 479 551 26,100 -1,250 Descending Atlanta Center
Mon 03:39:54 PM 35.0528 -84.7289 57° Northeast 479 551 24,500 -1,700 Descending Atlanta Center
Mon 03:40:54 PM 35.1514 -84.6306 39° Northeast 468 539 22,700 -2,083 Descending Atlanta Center
Mon 03:41:55 PM 35.2458 -84.5397 38° Northeast 442 509 20,300 -2,850 Descending Atlanta Center
Mon 03:42:54 PM 35.3358 -84.4539 38° Northeast 426 490 17,000 -3,429 Descending Atlanta Center
Mon 03:43:54 PM 35.4258 -84.3675 38° Northeast 414 476 13,500 -3,000 Descending Atlanta Center
Mon 03:44:54 PM 35.5156 -84.2861 36° Northeast 409 471 11,000 -1,250 Descending Atlanta Center
Mon 03:45:54 PM 35.5950 -84.2047 40° Northeast 396 456 11,000  Level Atlanta Center
Mon 03:46:54 PM 35.6806 -84.1231 38° Northeast 384 442 11,000 -400 Level Atlanta Center
Mon 03:47:54 PM 35.7619 -84.0439 38° Northeast 379 436 10,200 -950 Descending Atlanta Center
Mon 03:48:54 PM 35.8267 -83.9747 41° Northeast 349 402 9,100 -1,550 Descending Atlanta Center
Mon 03:49:54 PM 35.8914 -83.9492 18° North 263 303 7,100 -1,200 Descending Atlanta Center
Mon 03:50:54 PM 35.9561 -83.9617 351° North 239 275 6,700 -400 Descending Atlanta Center
Mon 03:52:00 PM 35.8255 -83.9908 206° Southwest  Level Estimated
Mon 03:59:00 PM 35.8110 -83.9940 206° Southwest  Level Estimated
Mon 04:00:00 PM 35.8110 -83.9940 206° Southwest  Level Estimated

Login

Don't have an account? Register now (free) for customized features, flight alerts, and more!